الصفحة الرئيسية
METAR-TAF:

METAR-TAF

مطار :

Panama Pacifico, بنما

دائرة عرض: 08-55N, خط طول: 079-36W, ارتفاع: 16 متر

مراقبة الطقس الحالي

تاريخ ووقت الإصدار 2ساعات و 33 دقيقة قبل الساعة 03:00UTC
ريح 7 عقدة من الشمال
درجة الحرارة 26°درجة مئوية
الرطوبة 84%
ضغط 1012 hPa
الرؤية 10 كم أو أكثر
غيوم قليلة على ارتفاع 2000 قدم

METAR: MPPA 290300Z 36007KT 9999 FEW020 26/23 Q1012

زمن: 00:33 (05:33 UTC)

توقعات

تاريخ ووقت الإصدار 6ساعات و 33 دقيقة قبل الساعة 23:00UTC
التوقعات صالحة من29 الساعة 00 UTC إلى 01 الساعة 06 UTC
ريح 10 عقدة من الشمال
الرؤية 10 كم أو أكثر
غيوم قليلة على ارتفاع 1800 قدم
مؤقت
من 29 الساعة 02 UTC إلى 29 الساعة 06 UTC
ريح 5 عقدة من الشمال
مؤقت
من 29 الساعة 07 UTC إلى 29 الساعة 10 UTC
ريح 2 عقدةمن اتجاهات متغيرة

TAF: MPPA 282300Z 2900/0106 01010KT 9999 FEW018 TEMPO 2902/2906 35005KT TEMPO 2907/2910 VRB02KT

أرصاد الطقس والتوقعات من أكثر من 4000 مطار (تقارير الطقس للمطار METAR والتنبؤ بالطقس بالمطارTAF).

المحطات المتاحة هي النقط الصفراء والحمراء على الخريطة.

حرك المؤشر فوق النقطة لمعرفة اسم المحطة.

ثم انقر لمعرفة أرصاد وتوقعات الطقس.

لتغيير الخارطة: اضغط على الأزرار الخضراء مع رمز الصليب الأسود للتكبير. على الزر الأخضر مع شرطة للتصغير، أو على الأسهم الخضراء للخرائط المجاورة.


METAR-TAF: